Time;durP1;ratioP1;P1;durP2;ratioP2;P2;SDS_P1;SDS_P2;PMS_P1;PMS_P2;Temp;Humidity;BMP_temperature;BMP_pressure;BME280_temperature;BME280_humidity;BME280_pressure;Samples;Min_cycle;Max_cycle;Signal;HPM_P1;HPM_P2
2022/11/21 00:01:35;;;;;;;;;;;15.90;81.20;;;;;;5060773;28;19912;-92
2022/11/21 00:04:01;;;;;;;;;;;15.90;81.40;;;;;;5060162;28;20152;-92
2022/11/21 00:06:27;;;;;;;;;;;15.90;81.50;;;;;;5060434;28;19944;-92
2022/11/21 00:08:52;;;;;;;;;;;15.90;81.70;;;;;;5059219;28;20064;-92
2022/11/21 00:11:18;;;;;;;;;;;15.80;81.80;;;;;;5061027;28;19908;-92
2022/11/21 00:13:45;;;;;;;;;;;15.80;82.00;;;;;;5060861;28;19962;-92
2022/11/21 00:16:12;;;;;;;;;;;15.80;82.10;;;;;;5061490;28;19916;-92
2022/11/21 00:18:37;;;;;;;;;;;15.80;82.30;;;;;;5060765;28;19909;-93
2022/11/21 00:21:07;;;;;;;;;;;15.80;82.40;;;;;;5059295;28;19912;-93
2022/11/21 00:23:34;;;;;;;;;;;15.80;82.50;;;;;;5059408;28;19948;-92
2022/11/21 00:26:02;;;;;;;;;;;15.80;82.70;;;;;;5059291;28;19944;-92
2022/11/21 00:28:28;;;;;;;;;;;15.80;82.80;;;;;;5058428;28;19977;-92
2022/11/21 00:30:53;;;;;;;;;;;15.80;82.90;;;;;;5057662;28;19908;-92
2022/11/21 00:33:19;;;;;;;;;;;15.80;83.10;;;;;;5058706;28;19913;-92
2022/11/21 00:35:45;;;;;;;;;;;15.80;83.20;;;;;;5059708;28;19919;-92
2022/11/21 00:38:13;;;;;;;;;;;15.70;83.20;;;;;;5060345;28;19963;-92
2022/11/21 00:40:45;;;;;;;;;;;15.70;83.40;;;;;;5060453;28;19916;-92
2022/11/21 00:43:11;;;;;;;;;;;15.70;83.60;;;;;;5060533;28;19920;-92
2022/11/21 00:45:37;;;;;;;;;;;15.70;83.70;;;;;;5060983;28;19909;-92
2022/11/21 00:48:05;;;;;;;;;;;15.70;83.90;;;;;;5061096;28;19908;-92
2022/11/21 00:50:31;;;;;;;;;;;15.70;84.00;;;;;;5060267;28;19909;-92
2022/11/21 00:52:57;;;;;;;;;;;15.70;84.10;;;;;;5059924;28;19919;-92
2022/11/21 00:55:23;;;;;;;;;;;15.60;84.10;;;;;;5059299;28;19975;-92
2022/11/21 00:57:51;;;;;;;;;;;15.70;84.20;;;;;;5060477;28;19984;-92
2022/11/21 01:00:17;;;;;;;;;;;15.60;84.30;;;;;;5060969;28;20170;-92
2022/11/21 01:02:43;;;;;;;;;;;15.60;84.50;;;;;;5058059;28;19908;-92
2022/11/21 01:05:09;;;;;;;;;;;15.60;84.70;;;;;;5059970;28;19973;-92
2022/11/21 01:07:37;;;;;;;;;;;15.60;84.90;;;;;;5059270;28;19972;-92
2022/11/21 01:10:06;;;;;;;;;;;15.60;85.00;;;;;;5060761;28;19913;-93
2022/11/21 01:12:35;;;;;;;;;;;15.60;85.10;;;;;;5060824;28;19990;-92
2022/11/21 01:15:00;;;;;;;;;;;15.60;85.20;;;;;;5060876;28;20241;-92
2022/11/21 01:17:26;;;;;;;;;;;15.60;85.30;;;;;;5059654;28;19953;-92
2022/11/21 01:19:52;;;;;;;;;;;15.60;85.30;;;;;;5059326;28;20215;-92
2022/11/21 01:22:21;;;;;;;;;;;15.60;85.50;;;;;;5060608;28;19939;-92
2022/11/21 01:24:46;;;;;;;;;;;15.60;85.60;;;;;;5059800;28;19924;-92
2022/11/21 01:27:12;;;;;;;;;;;15.60;85.60;;;;;;5056558;28;19912;-92
2022/11/21 01:29:37;;;;;;;;;;;15.60;85.70;;;;;;5058319;28;20301;-92
2022/11/21 01:32:06;;;;;;;;;;;15.60;85.70;;;;;;5058234;28;19908;-92
2022/11/21 01:34:35;;;;;;;;;;;15.60;85.70;;;;;;5055799;28;19908;-93
2022/11/21 01:37:03;;;;;;;;;;;15.60;85.80;;;;;;5056321;28;19908;-92
2022/11/21 01:39:29;;;;;;;;;;;15.60;85.90;;;;;;5057565;28;19920;-92
2022/11/21 01:41:55;;;;;;;;;;;15.60;85.90;;;;;;5056853;28;20106;-92
2022/11/21 01:44:24;;;;;;;;;;;15.60;86.00;;;;;;5056240;28;19939;-92
2022/11/21 01:46:51;;;;;;;;;;;15.60;86.00;;;;;;5054808;28;20003;-92
2022/11/21 01:49:16;;;;;;;;;;;15.60;86.00;;;;;;5055902;28;20240;-92
2022/11/21 01:51:45;;;;;;;;;;;15.60;86.00;;;;;;5056285;28;20409;-92
2022/11/21 01:54:19;;;;;;;;;;;15.60;86.10;;;;;;5056841;28;19940;-92
2022/11/21 01:56:50;;;;;;;;;;;15.60;86.20;;;;;;5059660;28;19909;-92
2022/11/21 01:59:20;;;;;;;;;;;15.60;86.20;;;;;;5059925;28;19912;-92
2022/11/21 02:01:49;;;;;;;;;;;15.60;86.30;;;;;;5059941;28;19912;-92
2022/11/21 02:04:15;;;;;;;;;;;15.60;86.40;;;;;;5059983;28;19908;-92
2022/11/21 02:06:42;;;;;;;;;;;15.60;86.40;;;;;;5058648;28;19908;-92
2022/11/21 02:09:07;;;;;;;;;;;15.60;86.40;;;;;;5059124;28;19913;-92
2022/11/21 02:11:39;;;;;;;;;;;15.60;86.40;;;;;;5059238;28;20275;-92
2022/11/21 02:14:04;;;;;;;;;;;15.60;86.50;;;;;;5058554;28;19909;-91
2022/11/21 02:16:33;;;;;;;;;;;15.60;86.60;;;;;;5056639;28;19936;-92
2022/11/21 02:19:03;;;;;;;;;;;15.60;86.50;;;;;;5056339;28;20023;-92
2022/11/21 02:21:39;;;;;;;;;;;15.60;86.50;;;;;;5055781;28;19924;-92
2022/11/21 02:24:07;;;;;;;;;;;15.60;86.50;;;;;;5057422;28;19919;-92
2022/11/21 02:26:36;;;;;;;;;;;15.60;86.50;;;;;;5056861;28;19912;-92
2022/11/21 02:29:02;;;;;;;;;;;15.60;86.60;;;;;;5058854;28;19916;-92
2022/11/21 02:31:30;;;;;;;;;;;15.60;86.70;;;;;;5058903;28;19916;-92
2022/11/21 02:33:56;;;;;;;;;;;15.60;86.80;;;;;;5059331;28;19972;-92
2022/11/21 02:36:34;;;;;;;;;;;15.60;86.80;;;;;;5059321;28;20312;-92
2022/11/21 02:39:04;;;;;;;;;;;15.60;86.90;;;;;;5059493;28;19979;-92
2022/11/21 02:41:32;;;;;;;;;;;15.60;87.00;;;;;;5059191;28;19916;-92
2022/11/21 02:44:05;;;;;;;;;;;15.60;86.90;;;;;;5059671;28;19920;-92
2022/11/21 02:46:34;;;;;;;;;;;15.60;87.00;;;;;;5059710;28;19908;-92
2022/11/21 02:49:03;;;;;;;;;;;15.60;87.00;;;;;;5060406;28;19909;-92
2022/11/21 02:51:28;;;;;;;;;;;15.60;87.00;;;;;;5059039;28;19909;-92
2022/11/21 02:53:57;;;;;;;;;;;15.60;86.90;;;;;;5059629;28;19908;-92
2022/11/21 02:56:25;;;;;;;;;;;15.60;87.00;;;;;;5060190;28;20210;-92
2022/11/21 02:58:54;;;;;;;;;;;15.60;87.00;;;;;;5059135;28;19971;-92
2022/11/21 03:01:19;;;;;;;;;;;15.60;87.00;;;;;;5058798;28;19981;-92
2022/11/21 03:03:45;;;;;;;;;;;15.60;87.10;;;;;;5059702;28;19920;-92
2022/11/21 03:06:10;;;;;;;;;;;15.60;87.10;;;;;;5059479;28;19916;-92
2022/11/21 03:08:36;;;;;;;;;;;15.60;87.10;;;;;;5059984;28;19969;-92
2022/11/21 03:11:05;;;;;;;;;;;15.60;87.10;;;;;;5059306;28;19914;-92
2022/11/21 03:13:30;;;;;;;;;;;15.60;87.20;;;;;;5059284;28;19909;-92
2022/11/21 03:15:57;;;;;;;;;;;15.50;87.20;;;;;;5059463;28;19920;-91
2022/11/21 03:18:26;;;;;;;;;;;15.60;87.40;;;;;;5061146;28;19974;-92
2022/11/21 03:20:52;;;;;;;;;;;15.60;87.30;;;;;;5063028;28;19917;-92
2022/11/21 03:23:17;;;;;;;;;;;15.60;87.40;;;;;;5063567;28;20029;-92
2022/11/21 03:25:43;;;;;;;;;;;15.60;87.40;;;;;;5063082;28;19999;-91
2022/11/21 03:28:09;;;;;;;;;;;15.50;87.40;;;;;;5063485;28;19920;-92
2022/11/21 03:30:34;;;;;;;;;;;15.50;87.50;;;;;;5063778;28;19916;-92
2022/11/21 03:33:00;;;;;;;;;;;15.50;88.20;;;;;;5080360;28;19909;-92
2022/11/21 03:35:25;;;;;;;;;;;15.50;87.60;;;;;;5062213;28;19915;-92
2022/11/21 03:37:51;;;;;;;;;;;15.50;87.60;;;;;;5062230;28;19955;-92
2022/11/21 03:40:20;;;;;;;;;;;15.50;87.60;;;;;;5061431;28;20308;-92
2022/11/21 03:42:48;;;;;;;;;;;15.50;87.60;;;;;;5062103;28;19924;-92
2022/11/21 03:45:14;;;;;;;;;;;15.50;87.60;;;;;;5061980;28;19913;-92
2022/11/21 03:47:42;;;;;;;;;;;15.50;87.70;;;;;;5062016;28;19913;-92
2022/11/21 03:50:07;;;;;;;;;;;15.50;87.70;;;;;;5061428;28;19909;-92
2022/11/21 03:52:33;;;;;;;;;;;15.50;87.70;;;;;;5061880;28;19920;-92
2022/11/21 03:54:58;;;;;;;;;;;15.50;87.80;;;;;;5060931;28;19919;-92
2022/11/21 03:57:27;;;;;;;;;;;15.50;87.90;;;;;;5061888;28;19908;-92
2022/11/21 03:59:55;;;;;;;;;;;15.50;88.00;;;;;;5062101;28;20018;-92
2022/11/21 04:02:21;;;;;;;;;;;15.40;88.10;;;;;;5062387;28;20241;-92
2022/11/21 04:04:46;;;;;;;;;;;15.40;88.20;;;;;;5061485;28;19917;-91
2022/11/21 04:07:13;;;;;;;;;;;15.40;88.30;;;;;;5059900;28;19909;-92
2022/11/21 04:09:42;;;;;;;;;;;15.40;88.50;;;;;;5060908;28;19908;-91
2022/11/21 04:12:07;;;;;;;;;;;15.30;88.60;;;;;;5060294;28;19915;-91
2022/11/21 04:14:33;;;;;;;;;;;15.50;88.80;;;;;;5056340;28;19908;-91
2022/11/21 04:16:58;;;;;;;;;;;16.20;84.90;;;;;;5059851;28;20255;-92
2022/11/21 04:19:24;;;;;;;;;;;17.10;78.30;;;;;;5060267;28;19916;-91
2022/11/21 04:21:49;;;;;;;;;;;17.50;75.30;;;;;;5061792;28;19916;-92
2022/11/21 04:24:15;;;;;;;;;;;17.60;73.30;;;;;;5061022;28;19935;-92
2022/11/21 04:26:41;;;;;;;;;;;17.90;71.70;;;;;;5060888;28;19920;-91
2022/11/21 04:29:09;;;;;;;;;;;18.10;70.20;;;;;;5059957;28;20015;-91
2022/11/21 04:31:35;;;;;;;;;;;18.30;69.10;;;;;;5059300;28;19909;-92
2022/11/21 04:34:01;;;;;;;;;;;18.40;68.30;;;;;;5058857;28;19932;-92
2022/11/21 04:36:27;;;;;;;;;;;18.40;67.70;;;;;;5059764;28;19973;-91
2022/11/21 04:38:55;;;;;;;;;;;18.50;67.30;;;;;;5059342;28;20259;-92
2022/11/21 04:41:24;;;;;;;;;;;18.50;67.20;;;;;;5059129;28;19923;-92
2022/11/21 04:43:49;;;;;;;;;;;18.50;67.10;;;;;;5059830;28;20313;-92
2022/11/21 04:46:18;;;;;;;;;;;18.50;67.00;;;;;;5075978;28;19973;-92
2022/11/21 04:48:43;;;;;;;;;;;18.40;66.90;;;;;;5058973;28;19967;-93
2022/11/21 04:51:12;;;;;;;;;;;18.40;67.20;;;;;;5058366;28;19982;-91
2022/11/21 04:53:37;;;;;;;;;;;18.30;67.40;;;;;;5058825;28;19936;-92
2022/11/21 04:56:04;;;;;;;;;;;18.20;67.80;;;;;;5058539;28;19952;-92
2022/11/21 04:58:31;;;;;;;;;;;18.20;68.40;;;;;;5058079;28;20251;-91
2022/11/21 05:00:57;;;;;;;;;;;18.10;69.00;;;;;;5058090;28;19920;-92
2022/11/21 05:03:26;;;;;;;;;;;18.00;69.60;;;;;;5057738;28;19909;-91
2022/11/21 05:05:51;;;;;;;;;;;17.90;70.10;;;;;;5057645;28;20336;-92
2022/11/21 05:08:20;;;;;;;;;;;17.80;70.80;;;;;;5058164;28;19908;-92
2022/11/21 05:13:36;;;;;;;;;;;17.50;72.10;;;;;;5074137;28;20071;-91
2022/11/21 05:16:05;;;;;;;;;;;17.40;73.00;;;;;;5056845;28;19908;-92
2022/11/21 05:18:30;;;;;;;;;;;17.30;73.80;;;;;;5056110;28;19912;-91
2022/11/21 05:20:56;;;;;;;;;;;17.20;74.40;;;;;;5056191;28;19912;-91
2022/11/21 05:23:21;;;;;;;;;;;17.10;75.10;;;;;;5055825;28;19935;-91
2022/11/21 05:25:48;;;;;;;;;;;17.00;75.70;;;;;;5057506;28;19909;-91
2022/11/21 05:28:17;;;;;;;;;;;16.90;76.40;;;;;;5055926;28;19908;-92
2022/11/21 05:30:42;;;;;;;;;;;16.90;77.20;;;;;;5056404;28;19908;-92
2022/11/21 05:33:08;;;;;;;;;;;16.80;77.70;;;;;;5056404;28;19909;-91
2022/11/21 05:35:33;;;;;;;;;;;16.70;78.30;;;;;;5056200;28;19908;-92
2022/11/21 05:38:02;;;;;;;;;;;16.60;78.80;;;;;;5055356;28;19965;-91
2022/11/21 05:40:31;;;;;;;;;;;16.60;79.40;;;;;;5055738;28;19919;-91
2022/11/21 05:45:44;;;;;;;;;;;16.40;80.40;;;;;;5074906;28;19973;-91
2022/11/21 05:48:13;;;;;;;;;;;16.30;81.00;;;;;;5057080;28;19912;-92
2022/11/21 05:50:41;;;;;;;;;;;16.30;81.40;;;;;;5055668;28;19920;-91
2022/11/21 05:53:07;;;;;;;;;;;16.20;81.80;;;;;;5055265;28;19908;-91
2022/11/21 05:55:33;;;;;;;;;;;16.10;82.00;;;;;;5052456;28;19919;-91
2022/11/21 05:58:01;;;;;;;;;;;16.10;82.50;;;;;;5052359;28;19915;-91
2022/11/21 06:00:27;;;;;;;;;;;16.10;82.80;;;;;;5053680;28;19939;-92
2022/11/21 06:05:37;;;;;;;;;;;16.20;82.80;;;;;;5069721;28;19919;-91
2022/11/21 06:08:03;;;;;;;;;;;16.30;81.70;;;;;;5052498;28;20433;-92
2022/11/21 06:10:28;;;;;;;;;;;16.50;80.30;;;;;;5052503;28;20092;-92
2022/11/21 06:13:20;;;;;;;;;;;16.60;79.30;;;;;;5051400;28;19973;-92
2022/11/21 06:15:49;;;;;;;;;;;16.80;77.90;;;;;;5050856;28;20084;-91
2022/11/21 06:18:18;;;;;;;;;;;17.00;76.40;;;;;;5048758;28;19916;-91
2022/11/21 06:20:47;;;;;;;;;;;17.10;75.40;;;;;;5051692;28;19908;-92
2022/11/21 06:23:16;;;;;;;;;;;17.30;74.50;;;;;;5051090;28;19908;-92
2022/11/21 06:25:44;;;;;;;;;;;17.30;74.00;;;;;;5050337;28;19919;-92
2022/11/21 06:28:10;;;;;;;;;;;17.40;73.60;;;;;;5050139;28;19920;-91
2022/11/21 06:30:36;;;;;;;;;;;17.50;73.40;;;;;;5051059;28;19958;-92
2022/11/21 06:33:05;;;;;;;;;;;17.50;73.20;;;;;;5050730;28;20061;-91
2022/11/21 06:35:36;;;;;;;;;;;17.50;73.40;;;;;;5051502;28;19958;-91
2022/11/21 06:38:02;;;;;;;;;;;17.40;73.60;;;;;;5051376;28;20018;-92
2022/11/21 06:40:27;;;;;;;;;;;17.30;74.10;;;;;;5051107;28;19972;-92
2022/11/21 06:42:53;;;;;;;;;;;17.30;74.60;;;;;;5047893;28;20018;-91
2022/11/21 06:45:22;;;;;;;;;;;17.20;74.90;;;;;;5048845;28;19915;-92
2022/11/21 06:47:51;;;;;;;;;;;17.10;75.50;;;;;;5047014;28;19916;-92
2022/11/21 06:50:16;;;;;;;;;;;17.00;76.00;;;;;;5048291;28;19909;-91
2022/11/21 06:52:42;;;;;;;;;;;16.90;76.60;;;;;;5050535;28;19909;-92
2022/11/21 06:55:08;;;;;;;;;;;16.90;77.20;;;;;;5053231;28;20182;-92
2022/11/21 06:57:34;;;;;;;;;;;16.80;77.60;;;;;;5012615;28;20149;-91
2022/11/21 07:00:00;;;;;;;;;;;16.80;78.20;;;;;;5051414;28;20223;-92
2022/11/21 07:02:26;;;;;;;;;;;16.70;78.70;;;;;;5053679;28;19912;-91
2022/11/21 07:04:51;;;;;;;;;;;16.60;79.40;;;;;;5053616;28;20021;-91
2022/11/21 07:07:17;;;;;;;;;;;16.60;80.00;;;;;;5072593;28;19917;-91
2022/11/21 07:09:43;;;;;;;;;;;16.50;80.60;;;;;;5055175;28;20341;-91
2022/11/21 07:14:53;;;;;;;;;;;16.30;81.60;;;;;;5074434;28;20201;-92
2022/11/21 07:17:18;;;;;;;;;;;16.30;82.10;;;;;;5054649;28;19909;-91
2022/11/21 07:19:44;;;;;;;;;;;16.20;82.50;;;;;;5054116;28;19922;-91
2022/11/21 07:22:09;;;;;;;;;;;16.20;83.00;;;;;;5053840;28;19920;-92
2022/11/21 07:24:35;;;;;;;;;;;16.10;83.40;;;;;;5053071;28;19908;-91
2022/11/21 07:27:03;;;;;;;;;;;16.10;83.80;;;;;;5069797;28;19909;-91
2022/11/21 07:29:29;;;;;;;;;;;16.10;84.20;;;;;;5051896;28;19986;-92
2022/11/21 07:31:54;;;;;;;;;;;16.00;84.50;;;;;;5052178;28;19970;-91
2022/11/21 07:34:22;;;;;;;;;;;16.00;85.00;;;;;;5069961;28;19956;-92
2022/11/21 07:36:51;;;;;;;;;;;16.00;85.10;;;;;;5050995;28;19920;-91
2022/11/21 07:39:20;;;;;;;;;;;16.00;85.20;;;;;;5053819;28;20172;-91
2022/11/21 07:41:48;;;;;;;;;;;16.10;85.20;;;;;;5055272;28;19916;-91
2022/11/21 07:44:14;;;;;;;;;;;16.10;84.90;;;;;;5055464;28;19914;-91
2022/11/21 07:46:39;;;;;;;;;;;16.20;84.60;;;;;;5052703;28;19912;-91
2022/11/21 07:49:08;;;;;;;;;;;16.30;84.10;;;;;;5052841;28;19976;-91
2022/11/21 07:51:34;;;;;;;;;;;16.40;83.60;;;;;;5053816;28;19909;-91
2022/11/21 07:53:59;;;;;;;;;;;16.50;83.20;;;;;;5054275;28;19977;-91
2022/11/21 07:56:25;;;;;;;;;;;16.50;82.70;;;;;;5055122;28;19919;-91
2022/11/21 07:58:54;;;;;;;;;;;16.60;81.90;;;;;;5054235;28;19912;-91
2022/11/21 08:01:22;;;;;;;;;;;16.70;81.40;;;;;;5053915;28;19913;-91
2022/11/21 08:03:51;;;;;;;;;;;16.80;80.90;;;;;;5053074;28;20212;-92
2022/11/21 08:06:17;;;;;;;;;;;16.80;80.40;;;;;;5017259;28;19956;-91
2022/11/21 08:08:43;;;;;;;;;;;16.90;79.90;;;;;;5053177;28;19967;-91
2022/11/21 08:11:08;;;;;;;;;;;17.00;79.40;;;;;;5013289;28;19955;-91
2022/11/21 08:13:34;;;;;;;;;;;17.00;78.90;;;;;;5053256;28;19943;-91
2022/11/21 08:16:07;;;;;;;;;;;17.10;78.60;;;;;;5048520;28;19909;-91
2022/11/21 08:18:33;;;;;;;;;;;17.10;78.40;;;;;;5046979;28;20270;-91
2022/11/21 08:21:02;;;;;;;;;;;17.00;78.50;;;;;;5054933;28;19919;-91
2022/11/21 08:23:28;;;;;;;;;;;17.00;78.80;;;;;;5038585;28;20080;-91
2022/11/21 08:25:53;;;;;;;;;;;17.00;79.00;;;;;;5054994;28;20108;-91
2022/11/21 08:28:19;;;;;;;;;;;16.90;79.10;;;;;;5053621;28;19920;-91
2022/11/21 08:30:44;;;;;;;;;;;16.90;79.30;;;;;;5054692;28;19913;-91
2022/11/21 08:33:10;;;;;;;;;;;16.90;79.50;;;;;;5052661;28;20399;-91
2022/11/21 08:35:57;;;;;;;;;;;16.80;79.60;;;;;;5053772;28;19930;-91
2022/11/21 08:38:25;;;;;;;;;;;16.80;79.90;;;;;;5070230;28;19919;-91
2022/11/21 08:42:01;;;;;;;;;;;16.70;80.10;;;;;;5052346;28;19924;-91
2022/11/21 08:43:37;;;;;;;;;;;16.70;80.40;;;;;;5071060;28;19924;-91
2022/11/21 08:46:04;;;;;;;;;;;16.70;80.70;;;;;;5041948;28;20136;-91
2022/11/21 08:48:29;;;;;;;;;;;16.60;81.00;;;;;;5043926;28;19913;-91
2022/11/21 08:51:02;;;;;;;;;;;16.60;81.40;;;;;;5058003;28;19908;-91
2022/11/21 08:53:28;;;;;;;;;;;16.60;81.70;;;;;;5041200;28;19919;-91
2022/11/21 08:55:53;;;;;;;;;;;16.50;82.80;;;;;;5047450;28;20168;-91
2022/11/21 08:58:22;;;;;;;;;;;16.40;82.50;;;;;;5044400;28;19908;-91
2022/11/21 09:00:50;;;;;;;;;;;16.40;83.00;;;;;;5053286;28;19908;-91
2022/11/21 09:03:16;;;;;;;;;;;16.30;83.30;;;;;;5053398;28;19908;-91
2022/11/21 09:05:41;;;;;;;;;;;16.30;83.80;;;;;;5052143;28;19908;-91
2022/11/21 09:08:07;;;;;;;;;;;16.20;84.10;;;;;;5053347;28;19908;-91
2022/11/21 09:10:33;;;;;;;;;;;16.10;84.40;;;;;;5054155;28;20121;-91
2022/11/21 09:12:58;;;;;;;;;;;16.10;84.80;;;;;;5054136;28;19908;-91
2022/11/21 09:18:09;;;;;;;;;;;16.00;85.40;;;;;;5070295;28;19919;-91
2022/11/21 09:20:39;;;;;;;;;;;16.00;85.60;;;;;;5053857;28;20045;-91
2022/11/21 09:23:08;;;;;;;;;;;16.10;85.50;;;;;;5053066;28;19912;-92
2022/11/21 09:25:34;;;;;;;;;;;16.20;85.00;;;;;;5052982;28;19908;-91
2022/11/21 09:28:01;;;;;;;;;;;16.30;84.20;;;;;;5052719;28;20070;-92
2022/11/21 09:30:29;;;;;;;;;;;16.50;82.90;;;;;;5050706;28;20062;-91
2022/11/21 09:32:59;;;;;;;;;;;16.80;81.00;;;;;;5050612;28;20070;-91
2022/11/21 09:35:24;;;;;;;;;;;17.10;78.80;;;;;;5051515;28;19909;-91
2022/11/21 09:37:53;;;;;;;;;;;17.30;76.90;;;;;;5052431;28;19915;-91
2022/11/21 09:40:19;;;;;;;;;;;17.50;75.30;;;;;;5051819;28;19908;-92
2022/11/21 09:42:48;;;;;;;;;;;17.60;74.30;;;;;;5051281;28;19928;-91
2022/11/21 09:45:48;;;;;;;;;;;17.70;73.70;;;;;;5049710;28;19973;-91
2022/11/21 09:48:21;;;;;;;;;;;17.70;73.30;;;;;;4999380;28;19904;-91
2022/11/21 09:50:49;;;;;;;;;;;17.80;73.20;;;;;;5052632;28;19920;-92
2022/11/21 09:53:22;;;;;;;;;;;17.70;73.20;;;;;;5050407;28;20186;-91
2022/11/21 09:56:00;;;;;;;;;;;17.70;73.50;;;;;;5051688;28;20136;-91
2022/11/21 09:58:29;;;;;;;;;;;17.60;73.80;;;;;;5052798;28;19916;-91
2022/11/21 10:00:55;;;;;;;;;;;17.60;74.20;;;;;;5054043;28;20174;-91
2022/11/21 10:03:22;;;;;;;;;;;17.50;74.50;;;;;;5051044;28;20270;-91
2022/11/21 10:05:51;;;;;;;;;;;17.40;74.90;;;;;;5051169;28;20221;-91
2022/11/21 10:08:26;;;;;;;;;;;17.30;75.30;;;;;;5052197;28;20041;-91
2022/11/21 10:10:53;;;;;;;;;;;17.30;75.70;;;;;;5052704;28;19912;-91
2022/11/21 10:13:25;;;;;;;;;;;17.20;76.20;;;;;;5051884;28;19934;-92
2022/11/21 10:15:54;;;;;;;;;;;17.10;76.70;;;;;;5057988;28;20257;-93
2022/11/21 10:18:27;;;;;;;;;;;17.10;77.20;;;;;;5064021;28;19908;-93
2022/11/21 10:21:08;;;;;;;;;;;17.10;77.40;;;;;;5060125;28;20128;-93
2022/11/21 10:23:33;;;;;;;;;;;17.00;77.80;;;;;;5055307;28;20055;-92
2022/11/21 10:26:02;;;;;;;;;;;17.00;78.10;;;;;;5052997;28;19980;-93
2022/11/21 10:28:36;;;;;;;;;;;17.00;78.30;;;;;;5049375;28;19908;-92
2022/11/21 10:31:03;;;;;;;;;;;16.90;78.70;;;;;;5050939;28;19908;-92
2022/11/21 10:33:39;;;;;;;;;;;16.80;79.20;;;;;;5051160;28;20032;-92
2022/11/21 10:36:11;;;;;;;;;;;16.80;79.70;;;;;;5053057;28;19912;-92
2022/11/21 10:38:37;;;;;;;;;;;16.70;80.20;;;;;;5048846;28;19908;-93
2022/11/21 10:41:13;;;;;;;;;;;16.70;80.60;;;;;;5052303;28;19912;-92
2022/11/21 10:46:26;;;;;;;;;;;16.60;81.40;;;;;;5067880;28;20074;-92
2022/11/21 10:49:01;;;;;;;;;;;16.60;81.60;;;;;;5052234;28;19999;-92
2022/11/21 10:51:44;;;;;;;;;;;16.60;82.00;;;;;;5052990;28;19913;-92
2022/11/21 10:54:31;;;;;;;;;;;16.60;82.20;;;;;;5052002;28;19973;-92
2022/11/21 10:57:14;;;;;;;;;;;16.50;82.10;;;;;;5051424;28;19908;-92
2022/11/21 10:59:58;;;;;;;;;;;16.60;82.00;;;;;;5052256;28;20237;-92
2022/11/21 11:02:25;;;;;;;;;;;16.60;81.70;;;;;;5050398;28;19978;-92
2022/11/21 11:05:09;;;;;;;;;;;16.70;81.40;;;;;;5051061;28;19916;-92
2022/11/21 11:07:37;;;;;;;;;;;16.80;80.60;;;;;;5049058;28;20080;-92
2022/11/21 11:10:22;;;;;;;;;;;17.10;79.20;;;;;;5051012;28;19908;-92
2022/11/21 11:15:38;;;;;;;;;;;17.40;77.20;;;;;;5067365;28;19919;-91
2022/11/21 11:18:04;;;;;;;;;;;17.50;75.60;;;;;;5046913;28;20039;-91
2022/11/21 11:20:43;;;;;;;;;;;17.60;75.10;;;;;;5049640;28;20261;-92
2022/11/21 11:23:18;;;;;;;;;;;17.60;74.90;;;;;;5049821;28;20069;-91
2022/11/21 11:25:48;;;;;;;;;;;17.60;74.90;;;;;;5048934;28;20263;-91
2022/11/21 11:28:14;;;;;;;;;;;17.60;74.80;;;;;;5050935;28;19912;-91
2022/11/21 11:30:40;;;;;;;;;;;17.60;74.70;;;;;;5051451;28;20178;-91
2022/11/21 11:33:29;;;;;;;;;;;17.60;74.50;;;;;;5050851;28;20258;-91
2022/11/21 11:36:05;;;;;;;;;;;17.60;74.50;;;;;;5039908;28;19920;-91
2022/11/21 11:38:34;;;;;;;;;;;17.60;74.70;;;;;;5052451;28;20198;-91
2022/11/21 11:41:00;;;;;;;;;;;17.60;74.70;;;;;;5055096;28;19944;-91
2022/11/21 11:49:28;;;;;;;;;;;17.60;75.40;;;;;;5070308;28;19919;-91
2022/11/21 11:52:01;;;;;;;;;;;17.60;75.70;;;;;;5051123;28;19922;-91
2022/11/21 11:54:28;;;;;;;;;;;17.50;76.00;;;;;;5050436;28;19908;-91
2022/11/21 11:56:54;;;;;;;;;;;17.40;76.40;;;;;;5051219;28;19928;-91
2022/11/21 11:59:26;;;;;;;;;;;17.40;76.80;;;;;;5052963;28;19981;-92
2022/11/21 12:01:59;;;;;;;;;;;17.40;77.10;;;;;;5051880;28;20006;-91
2022/11/21 12:04:28;;;;;;;;;;;17.40;77.10;;;;;;5053343;28;19934;-91
2022/11/21 12:06:54;;;;;;;;;;;17.40;77.40;;;;;;5052284;28;20270;-93
2022/11/21 12:09:35;;;;;;;;;;;17.40;77.50;;;;;;5054244;28;19904;-92
2022/11/21 12:12:06;;;;;;;;;;;17.40;77.40;;;;;;5051874;28;19916;-91
2022/11/21 12:17:55;;;;;;;;;;;17.40;77.60;;;;;;5070241;28;19919;-91
2022/11/21 12:20:24;;;;;;;;;;;17.40;77.70;;;;;;5034729;28;19919;-91
2022/11/21 12:22:53;;;;;;;;;;;17.40;77.70;;;;;;5052589;28;20146;-91
2022/11/21 12:25:22;;;;;;;;;;;17.40;77.60;;;;;;5051589;28;19916;-91
2022/11/21 12:27:51;;;;;;;;;;;17.40;77.60;;;;;;5037338;28;20107;-91
2022/11/21 12:30:17;;;;;;;;;;;17.40;77.60;;;;;;5052447;28;20214;-91
2022/11/21 12:32:42;;;;;;;;;;;17.40;77.70;;;;;;5035331;28;19908;-91
2022/11/21 12:35:08;;;;;;;;;;;17.40;77.70;;;;;;5050997;28;20167;-91
2022/11/21 12:37:52;;;;;;;;;;;17.40;77.90;;;;;;5026932;28;19959;-91
2022/11/21 12:40:27;;;;;;;;;;;17.40;77.80;;;;;;5051782;28;19912;-91
2022/11/21 12:42:58;;;;;;;;;;;17.50;77.60;;;;;;5029186;28;19927;-91
2022/11/21 12:45:35;;;;;;;;;;;17.40;77.60;;;;;;5051327;28;20218;-91
2022/11/21 12:56:36;;;;;;;;;;;17.40;78.00;;;;;;5062178;28;19970;-91
2022/11/21 12:59:05;;;;;;;;;;;17.40;78.30;;;;;;5050799;28;19928;-92
2022/11/21 13:01:37;;;;;;;;;;;17.30;78.40;;;;;;5057827;28;19920;-91
2022/11/21 13:04:04;;;;;;;;;;;17.30;78.50;;;;;;5050504;28;20425;-92
2022/11/21 13:06:31;;;;;;;;;;;17.30;78.70;;;;;;5050145;28;19952;-91
2022/11/21 13:09:01;;;;;;;;;;;17.30;78.70;;;;;;5050049;28;19989;-91
2022/11/21 13:14:20;;;;;;;;;;;17.30;78.90;;;;;;5066010;28;19943;-91
2022/11/21 13:16:50;;;;;;;;;;;17.30;79.40;;;;;;5048010;28;19908;-91
2022/11/21 13:19:19;;;;;;;;;;;17.20;79.60;;;;;;5050183;28;19908;-91
2022/11/21 13:21:48;;;;;;;;;;;17.20;80.00;;;;;;5050924;28;19912;-91
2022/11/21 13:24:35;;;;;;;;;;;17.10;80.20;;;;;;5050524;28;19912;-91
2022/11/21 13:27:04;;;;;;;;;;;17.10;80.40;;;;;;5049838;28;20396;-91
2022/11/21 13:29:32;;;;;;;;;;;17.10;80.70;;;;;;5066672;28;19915;-91
2022/11/21 13:32:10;;;;;;;;;;;17.10;80.80;;;;;;5047625;28;19908;-91
2022/11/21 13:34:39;;;;;;;;;;;17.00;80.90;;;;;;5046921;28;19940;-91
2022/11/21 13:37:05;;;;;;;;;;;17.00;81.30;;;;;;5046625;28;20240;-91
2022/11/21 13:39:31;;;;;;;;;;;17.00;81.70;;;;;;5046760;28;19974;-91
2022/11/21 13:44:46;;;;;;;;;;;16.90;82.20;;;;;;5066762;28;19935;-91
2022/11/21 13:47:24;;;;;;;;;;;16.90;82.30;;;;;;5050260;28;19921;-91
2022/11/21 13:49:56;;;;;;;;;;;16.90;82.50;;;;;;5049935;28;19919;-91
2022/11/21 13:52:38;;;;;;;;;;;16.90;82.70;;;;;;5050018;28;19938;-91
2022/11/21 13:55:07;;;;;;;;;;;16.80;82.90;;;;;;5050345;28;19909;-91
2022/11/21 13:57:42;;;;;;;;;;;16.80;83.20;;;;;;5051163;28;19944;-91
2022/11/21 14:00:30;;;;;;;;;;;16.70;83.40;;;;;;5049066;28;19912;-91
2022/11/21 14:03:21;;;;;;;;;;;16.70;83.60;;;;;;5039011;28;19913;-91
2022/11/21 14:05:53;;;;;;;;;;;16.70;83.70;;;;;;5044639;28;19916;-91
2022/11/21 14:08:21;;;;;;;;;;;16.60;83.90;;;;;;5050024;28;19909;-91
2022/11/21 14:10:49;;;;;;;;;;;16.60;84.30;;;;;;5067709;28;19908;-91
2022/11/21 14:13:31;;;;;;;;;;;16.60;84.50;;;;;;5049777;28;19909;-91
2022/11/21 14:16:16;;;;;;;;;;;16.60;84.70;;;;;;5049979;28;19915;-91
2022/11/21 14:18:42;;;;;;;;;;;16.50;85.00;;;;;;5049656;28;19915;-91
2022/11/21 14:21:16;;;;;;;;;;;16.50;85.40;;;;;;5051680;28;19919;-91
2022/11/21 14:23:43;;;;;;;;;;;16.50;85.60;;;;;;5049239;28;20101;-91
2022/11/21 14:26:13;;;;;;;;;;;16.50;85.90;;;;;;5046235;28;20009;-91
2022/11/21 14:28:42;;;;;;;;;;;16.50;85.80;;;;;;5066764;28;19970;-91
2022/11/21 14:31:11;;;;;;;;;;;16.60;85.30;;;;;;5048239;28;19908;-92
2022/11/21 14:33:41;;;;;;;;;;;16.70;84.60;;;;;;5047588;28;19917;-91
2022/11/21 14:36:20;;;;;;;;;;;16.80;83.90;;;;;;5050602;28;19909;-91
2022/11/21 14:38:53;;;;;;;;;;;16.90;83.00;;;;;;5051796;28;19908;-92
2022/11/21 14:41:26;;;;;;;;;;;17.10;82.00;;;;;;5050107;28;19924;-91
2022/11/21 14:43:57;;;;;;;;;;;17.30;81.00;;;;;;5047145;28;20074;-91
2022/11/21 14:46:45;;;;;;;;;;;17.40;80.00;;;;;;5046286;28;19970;-91
2022/11/21 14:49:14;;;;;;;;;;;17.50;78.80;;;;;;5020564;28;20287;-91
2022/11/21 14:51:40;;;;;;;;;;;17.60;77.80;;;;;;5046115;28;19951;-91
2022/11/21 14:54:11;;;;;;;;;;;17.70;77.50;;;;;;5045394;28;19963;-91
2022/11/21 14:56:39;;;;;;;;;;;17.60;77.70;;;;;;5046154;28;19916;-92
2022/11/21 14:59:07;;;;;;;;;;;17.60;77.70;;;;;;5046933;28;19909;-91
2022/11/21 15:01:33;;;;;;;;;;;17.50;77.90;;;;;;5046673;28;19951;-91
2022/11/21 15:04:03;;;;;;;;;;;17.50;78.30;;;;;;5047342;28;19976;-91
2022/11/21 15:06:32;;;;;;;;;;;17.40;78.70;;;;;;5047856;28;19981;-91
2022/11/21 15:09:01;;;;;;;;;;;17.30;79.30;;;;;;5049695;28;19908;-91